Terminal Aerodrome Forecast
Issued by NWS Paducah, KY

Home | Current Version | Previous Version | Text Only | Print | Product List | Glossary On
Versions: 1 2 3 4 5 6 7 8 9 10 11 12 13 14 15 16 17
000
FTUS43 KPAH 011905 AAA
TAFPAH
TAF AMD
KPAH 011905Z 0119/0218 27004KT P6SM BKN100
     FM020000 17004KT 4SM SHRA BR VCTS SCT025CB BKN050
     FM021200 18004KT P6SM SCT010 BKN025 PROB30 0212/0218 -SHRA=

USA.gov is the U.S. government's official web portal to all federal, state and local government web resources and services.